Time;durP1;ratioP1;P1;durP2;ratioP2;P2;SDS_P1;SDS_P2;PMS_P1;PMS_P2;Temp;Humidity;BMP_temperature;BMP_pressure;BME280_temperature;BME280_humidity;BME280_pressure;Samples;Min_cycle;Max_cycle;Signal;HPM_P1;HPM_P2
2022/04/15 00:01:55;;;;;;;13.27;11.83;;;10.70;99.90;;;;;;4954868;28;20251;-60
2022/04/15 00:04:22;;;;;;;13.50;12.10;;;10.70;99.90;;;;;;4955198;28;20201;-60
2022/04/15 00:06:50;;;;;;;13.60;12.20;;;10.60;99.90;;;;;;4955150;28;20617;-59
2022/04/15 00:09:17;;;;;;;15.70;13.20;;;10.60;99.90;;;;;;4955005;28;20657;-59
2022/04/15 00:11:45;;;;;;;13.53;12.13;;;10.60;99.90;;;;;;4955042;28;20205;-60
2022/04/15 00:14:13;;;;;;;12.50;11.23;;;10.50;99.90;;;;;;4954979;28;20208;-60
2022/04/15 00:16:43;;;;;;;14.40;12.60;;;10.40;99.90;;;;;;4954816;28;20224;-60
2022/04/15 00:19:12;;;;;;;13.23;11.93;;;10.20;99.90;;;;;;4954985;28;20295;-60
2022/04/15 00:21:38;;;;;;;13.17;11.77;;;10.20;99.90;;;;;;4954582;28;20671;-60
2022/04/15 00:24:07;;;;;;;14.47;13.00;;;10.10;99.90;;;;;;4954871;28;20598;-60
2022/04/15 00:26:35;;;;;;;16.20;12.80;;;10.10;99.90;;;;;;4954799;28;20467;-60
2022/04/15 00:29:05;;;;;;;14.30;12.93;;;10.10;99.90;;;;;;4954749;28;20223;-60
2022/04/15 00:31:33;;;;;;;14.77;12.20;;;10.10;99.90;;;;;;4954741;28;20193;-60
2022/04/15 00:34:00;;;;;;;16.10;13.37;;;10.10;99.90;;;;;;4954771;28;20250;-60
2022/04/15 00:36:27;;;;;;;16.13;13.17;;;10.00;99.90;;;;;;4954396;28;20231;-60
2022/04/15 00:38:54;;;;;;;15.07;12.60;;;9.90;99.90;;;;;;4954413;28;20235;-60
2022/04/15 00:41:22;;;;;;;15.00;13.40;;;9.80;99.90;;;;;;4956194;28;20209;-60
2022/04/15 00:43:53;;;;;;;14.00;12.50;;;9.80;99.90;;;;;;4954594;28;20746;-60
2022/04/15 00:46:20;;;;;;;13.60;12.30;;;9.80;99.90;;;;;;4954251;28;20195;-60
2022/04/15 00:48:47;;;;;;;16.10;13.43;;;9.80;99.90;;;;;;4954593;28;20203;-60
2022/04/15 00:51:14;;;;;;;15.37;13.77;;;9.70;99.90;;;;;;4954195;28;20688;-60
2022/04/15 00:53:42;;;;;;;15.80;13.80;;;9.70;99.90;;;;;;4954823;28;20191;-60
2022/04/15 00:56:12;;;;;;;15.00;13.50;;;9.80;99.90;;;;;;4954501;28;20199;-60
2022/04/15 00:58:42;;;;;;;16.67;13.77;;;9.80;99.90;;;;;;4954733;28;20301;-60
2022/04/15 01:01:10;;;;;;;15.90;13.97;;;9.80;99.90;;;;;;4954120;28;20203;-60
2022/04/15 01:03:37;;;;;;;14.93;12.87;;;9.80;99.90;;;;;;4954155;28;20684;-59
2022/04/15 01:06:07;;;;;;;14.97;12.40;;;9.80;99.90;;;;;;4954524;28;20534;-60
2022/04/15 01:08:39;;;;;;;15.80;13.00;;;9.70;99.90;;;;;;4954087;28;20211;-60
2022/04/15 01:11:07;;;;;;;13.50;12.10;;;9.50;99.90;;;;;;4956007;28;20684;-60
2022/04/15 01:13:36;;;;;;;14.43;12.70;;;9.40;99.90;;;;;;4957978;28;20664;-60
2022/04/15 01:16:05;;;;;;;14.00;12.20;;;9.20;99.90;;;;;;4958141;28;20297;-60
2022/04/15 01:18:32;;;;;;;14.67;13.03;;;9.00;99.90;;;;;;4958179;28;20234;-60
2022/04/15 01:21:00;;;;;;;16.60;13.70;;;9.00;99.90;;;;;;4958360;28;20195;-60
2022/04/15 01:23:29;;;;;;;16.80;14.23;;;9.00;99.90;;;;;;4957798;28;20211;-59
2022/04/15 01:25:55;;;;;;;15.63;13.93;;;9.00;99.90;;;;;;4957783;28;20210;-60
2022/04/15 01:28:22;;;;;;;14.97;13.37;;;9.00;99.90;;;;;;4957937;28;20626;-59
2022/04/15 01:30:51;;;;;;;14.60;13.03;;;9.00;99.90;;;;;;4957854;28;20240;-60
2022/04/15 01:33:18;;;;;;;14.13;12.63;;;9.00;99.90;;;;;;4957880;28;20212;-59
2022/04/15 01:35:45;;;;;;;15.37;13.67;;;8.90;99.90;;;;;;4957941;28;20210;-59
2022/04/15 01:38:14;;;;;;;14.90;13.37;;;9.00;99.90;;;;;;4958396;28;20775;-60
2022/04/15 01:40:44;;;;;;;15.20;13.77;;;9.00;99.90;;;;;;4957841;28;20346;-59
2022/04/15 01:43:12;;;;;;;15.77;14.17;;;9.10;99.90;;;;;;4957652;28;20251;-60
2022/04/15 01:45:39;;;;;;;18.00;14.33;;;9.10;99.90;;;;;;4957636;28;20206;-60
2022/04/15 01:48:06;;;;;;;16.10;14.00;;;9.10;99.90;;;;;;4957651;28;20214;-60
2022/04/15 01:50:33;;;;;;;15.93;14.07;;;9.10;99.90;;;;;;4957588;28;20219;-60
2022/04/15 01:53:00;;;;;;;16.20;12.67;;;9.00;99.90;;;;;;4957574;28;20612;-60
2022/04/15 01:55:27;;;;;;;18.57;14.33;;;9.10;99.90;;;;;;4957807;28;20210;-60
2022/04/15 01:57:56;;;;;;;15.83;14.13;;;8.90;99.90;;;;;;4957536;28;20195;-60
2022/04/15 02:00:23;;;;;;;13.60;12.30;;;8.80;99.90;;;;;;4957370;28;20203;-59
2022/04/15 02:02:50;;;;;;;14.10;12.70;;;8.70;99.90;;;;;;4957369;28;20215;-59
2022/04/15 02:05:17;;;;;;;14.80;13.23;;;8.60;99.90;;;;;;4957357;28;20209;-59
2022/04/15 02:07:44;;;;;;;18.37;13.83;;;8.50;99.90;;;;;;4957334;28;20632;-59
2022/04/15 02:10:12;;;;;;;15.13;13.70;;;8.50;99.90;;;;;;4957267;28;20316;-59
2022/04/15 02:12:39;;;;;;;13.70;12.37;;;8.40;99.90;;;;;;4957227;28;20210;-60
2022/04/15 02:15:09;;;;;;;14.57;12.77;;;8.40;99.90;;;;;;4957196;28;20202;-59
2022/04/15 02:17:36;;;;;;;14.47;12.97;;;8.50;99.90;;;;;;4957046;28;20188;-60
2022/04/15 02:20:04;;;;;;;14.10;12.03;;;8.40;99.90;;;;;;4957312;28;20704;-60
2022/04/15 02:22:30;;;;;;;14.10;12.60;;;8.50;99.90;;;;;;4956328;28;20601;-59
2022/04/15 02:24:57;;;;;;;14.07;12.63;;;8.50;99.90;;;;;;4957086;28;20207;-60
2022/04/15 02:27:24;;;;;;;18.70;14.67;;;8.60;99.90;;;;;;4956850;28;20668;-60
2022/04/15 02:29:51;;;;;;;18.63;13.80;;;8.50;99.90;;;;;;4956788;28;20222;-59
2022/04/15 02:32:20;;;;;;;15.63;13.93;;;8.60;99.90;;;;;;4956904;28;20218;-60
2022/04/15 02:34:47;;;;;;;20.17;14.93;;;8.50;99.90;;;;;;4957665;28;20206;-59
2022/04/15 02:37:14;;;;;;;16.70;13.30;;;8.50;99.90;;;;;;4956671;28;20234;-59
2022/04/15 02:39:40;;;;;;;17.83;14.07;;;8.50;99.90;;;;;;4956919;28;20191;-60
2022/04/15 02:42:08;;;;;;;15.23;13.77;;;8.40;99.90;;;;;;4956819;28;20214;-60
2022/04/15 02:44:38;;;;;;;15.27;13.67;;;8.40;99.90;;;;;;4956649;28;20251;-60
2022/04/15 02:47:06;;;;;;;16.50;13.83;;;8.30;99.90;;;;;;4956367;28;20195;-60
2022/04/15 02:49:34;;;;;;;16.20;14.20;;;8.30;99.90;;;;;;4956564;28;20195;-59
2022/04/15 02:52:01;;;;;;;17.50;13.77;;;8.30;99.90;;;;;;4956515;28;20209;-60
2022/04/15 02:54:28;;;;;;;17.60;14.77;;;8.40;99.90;;;;;;4956522;28;20225;-60
2022/04/15 02:56:55;;;;;;;14.93;13.50;;;8.40;99.90;;;;;;4956449;28;20233;-61
2022/04/15 02:59:22;;;;;;;17.20;14.43;;;8.40;99.90;;;;;;4955985;28;20660;-60
2022/04/15 03:01:50;;;;;;;14.37;12.87;;;8.30;99.90;;;;;;4956216;28;20207;-60
2022/04/15 03:04:17;;;;;;;14.90;12.70;;;8.30;99.90;;;;;;4956014;28;20657;-59
2022/04/15 03:06:45;;;;;;;15.00;13.50;;;8.30;99.90;;;;;;4956228;28;20265;-59
2022/04/15 03:09:12;;;;;;;15.00;12.97;;;8.20;99.90;;;;;;4956249;28;20298;-60
2022/04/15 03:11:39;;;;;;;12.67;11.47;;;8.10;99.90;;;;;;4956078;28;20237;-60
2022/04/15 03:14:07;;;;;;;14.50;11.93;;;8.00;99.90;;;;;;4956123;28;20196;-60
2022/04/15 03:16:35;;;;;;;14.63;12.87;;;8.00;99.90;;;;;;4955645;28;20281;-59
2022/04/15 03:19:02;;;;;;;13.37;12.03;;;8.00;99.90;;;;;;4956041;28;20206;-59
2022/04/15 03:21:29;;;;;;;15.53;12.33;;;7.80;99.90;;;;;;4955969;28;20440;-59
2022/04/15 03:23:57;;;;;;;10.63;9.63;;;7.80;99.90;;;;;;4956213;28;20206;-60
2022/04/15 03:26:24;;;;;;;10.30;9.20;;;7.80;99.90;;;;;;4955821;29;20207;-59
2022/04/15 03:28:51;;;;;;;12.40;10.47;;;7.70;99.90;;;;;;4955797;29;20210;-59
2022/04/15 03:31:18;;;;;;;13.00;11.60;;;7.70;99.90;;;;;;4955589;28;20222;-59
2022/04/15 03:33:45;;;;;;;16.53;13.60;;;7.60;99.90;;;;;;4955739;28;20213;-59
2022/04/15 03:36:13;;;;;;;20.63;15.97;;;7.60;99.90;;;;;;4955690;28;20203;-59
2022/04/15 03:38:40;;;;;;;19.27;15.43;;;7.80;99.90;;;;;;4955542;28;20233;-59
2022/04/15 03:41:09;;;;;;;17.47;15.70;;;7.80;99.90;;;;;;4955638;28;20213;-60
2022/04/15 03:43:36;;;;;;;17.87;15.97;;;7.90;99.90;;;;;;4956559;28;20257;-59
2022/04/15 03:46:04;;;;;;;18.60;16.20;;;7.90;99.90;;;;;;4955511;28;20214;-59
2022/04/15 03:48:31;;;;;;;19.80;16.83;;;7.90;99.90;;;;;;4955481;28;20209;-59
2022/04/15 03:50:58;;;;;;;19.43;16.17;;;7.90;99.90;;;;;;4955157;28;20545;-60
2022/04/15 03:53:25;;;;;;;20.33;16.73;;;7.80;99.90;;;;;;4955164;28;20218;-59
2022/04/15 03:55:52;;;;;;;19.63;16.30;;;7.90;99.90;;;;;;4955402;28;20209;-60
2022/04/15 03:58:20;;;;;;;20.07;16.83;;;7.90;99.90;;;;;;4955316;28;20220;-59
2022/04/15 04:00:47;;;;;;;21.90;18.27;;;7.90;99.90;;;;;;4954859;28;20579;-59
2022/04/15 04:03:15;;;;;;;19.77;17.67;;;7.90;99.90;;;;;;4955214;28;20225;-59
2022/04/15 04:05:42;;;;;;;22.47;18.20;;;8.00;99.90;;;;;;4955187;28;20199;-59
2022/04/15 04:08:09;;;;;;;23.20;18.83;;;8.00;99.90;;;;;;4955147;28;20218;-59
2022/04/15 04:10:36;;;;;;;23.03;18.97;;;8.00;99.90;;;;;;4955071;28;20222;-60
2022/04/15 04:13:03;;;;;;;25.63;18.77;;;8.00;99.90;;;;;;4955069;28;20224;-59
2022/04/15 04:15:32;;;;;;;26.00;19.80;;;8.00;99.90;;;;;;4954600;28;20712;-59
2022/04/15 04:17:59;;;;;;;24.47;20.90;;;8.10;99.90;;;;;;4954986;28;20206;-60
2022/04/15 04:20:26;;;;;;;24.87;20.97;;;8.10;99.90;;;;;;4954941;28;20191;-60
2022/04/15 04:22:53;;;;;;;24.47;20.90;;;8.10;99.90;;;;;;4954861;28;20206;-60
2022/04/15 04:25:20;;;;;;;23.60;20.10;;;8.10;99.90;;;;;;4954857;28;20207;-61
2022/04/15 04:27:47;;;;;;;25.27;19.53;;;8.10;99.90;;;;;;4954811;28;20561;-60
2022/04/15 04:30:15;;;;;;;24.73;20.47;;;8.00;99.90;;;;;;4954387;28;20709;-60
2022/04/15 04:32:49;;;;;;;26.43;21.87;;;8.10;99.90;;;;;;4954790;28;20202;-59
2022/04/15 04:35:18;;;;;;;26.63;21.50;;;8.10;99.90;;;;;;4954829;28;20369;-60
2022/04/15 04:37:53;;;;;;;27.00;20.77;;;8.10;99.90;;;;;;4954523;28;20246;-59
2022/04/15 04:40:20;;;;;;;25.87;21.37;;;8.10;99.90;;;;;;4954787;28;20206;-60
2022/04/15 04:42:48;;;;;;;27.70;22.93;;;8.00;99.90;;;;;;4954465;28;20246;-60
2022/04/15 04:45:15;;;;;;;27.50;22.70;;;8.10;99.90;;;;;;4954567;28;20194;-60
2022/04/15 04:47:45;;;;;;;31.17;23.50;;;8.00;99.90;;;;;;4954586;28;20206;-60
2022/04/15 04:50:12;;;;;;;27.20;22.93;;;8.10;99.90;;;;;;4954979;28;20261;-60
2022/04/15 04:52:39;;;;;;;29.07;23.63;;;8.10;99.90;;;;;;4954651;28;20212;-60
2022/04/15 04:55:08;;;;;;;24.83;21.90;;;8.10;99.90;;;;;;4954624;28;20214;-60
2022/04/15 04:57:35;;;;;;;29.33;23.93;;;8.10;99.90;;;;;;4955535;28;20664;-60
2022/04/15 05:00:02;;;;;;;28.27;22.80;;;8.20;99.90;;;;;;4954726;28;20560;-60
2022/04/15 05:02:29;;;;;;;27.93;22.97;;;8.10;99.90;;;;;;4954177;28;20217;-59
2022/04/15 05:04:57;;;;;;;32.47;23.93;;;8.10;99.90;;;;;;4954528;28;20203;-59
2022/04/15 05:07:24;;;;;;;27.70;23.37;;;8.10;99.90;;;;;;4954495;28;20218;-59
2022/04/15 05:09:52;;;;;;;25.97;22.13;;;8.10;99.90;;;;;;4954456;28;20277;-60
2022/04/15 05:12:19;;;;;;;27.97;22.93;;;8.10;99.90;;;;;;4954365;28;20225;-60
2022/04/15 05:14:46;;;;;;;30.10;23.17;;;8.10;99.90;;;;;;4953934;28;20207;-60
2022/04/15 05:17:13;;;;;;;28.53;24.20;;;8.20;99.90;;;;;;4954074;28;20309;-60
2022/04/15 05:19:40;;;;;;;29.30;23.80;;;8.20;99.90;;;;;;4953551;28;20213;-59
2022/04/15 05:22:09;;;;;;;32.73;25.10;;;8.30;99.90;;;;;;4954150;28;20202;-59
2022/04/15 05:24:36;;;;;;;30.33;25.87;;;8.30;99.90;;;;;;4954082;28;20210;-60
2022/04/15 05:27:03;;;;;;;28.27;25.13;;;8.40;99.90;;;;;;4954288;28;20202;-60
2022/04/15 05:29:30;;;;;;;32.23;24.90;;;8.40;99.90;;;;;;4954282;28;20196;-60
2022/04/15 05:31:57;;;;;;;31.00;25.10;;;8.50;99.90;;;;;;4954312;28;20250;-59
2022/04/15 05:34:24;;;;;;;30.43;26.07;;;8.60;99.90;;;;;;4954211;28;20203;-59
2022/04/15 05:36:51;;;;;;;28.80;24.83;;;8.60;99.90;;;;;;4954213;28;20945;-59
2022/04/15 05:39:20;;;;;;;34.70;27.47;;;8.70;99.90;;;;;;4953880;28;20589;-60
2022/04/15 05:41:46;;;;;;;40.67;29.00;;;8.70;99.90;;;;;;4953899;28;20262;-60
2022/04/15 05:44:14;;;;;;;44.83;28.67;;;8.70;99.90;;;;;;4954100;28;20206;-59
2022/04/15 05:46:42;;;;;;;48.23;31.17;;;8.70;99.90;;;;;;4953957;28;20216;-60
2022/04/15 05:49:13;;;;;;;59.03;31.50;;;8.60;99.90;;;;;;4953786;28;20208;-60
2022/04/15 05:51:42;;;;;;;51.03;30.57;;;8.60;99.90;;;;;;4953970;28;20207;-60
2022/04/15 05:54:09;;;;;;;46.50;31.40;;;8.60;99.90;;;;;;4953856;28;20303;-61
2022/04/15 05:56:37;;;;;;;65.17;32.17;;;8.60;99.90;;;;;;4955470;28;20275;-60
2022/04/15 05:59:04;;;;;;;45.57;30.63;;;8.60;99.90;;;;;;4957023;28;20203;-59
2022/04/15 06:01:32;;;;;;;56.20;33.20;;;8.60;99.90;;;;;;4957403;28;20290;-60
2022/04/15 06:03:59;;;;;;;43.20;30.20;;;8.60;99.90;;;;;;4957635;28;20207;-60
2022/04/15 06:06:26;;;;;;;41.97;30.23;;;8.60;99.90;;;;;;4957525;28;20257;-61
2022/04/15 06:08:54;;;;;;;51.33;30.57;;;8.70;99.90;;;;;;4957709;28;20218;-61
2022/04/15 06:11:21;;;;;;;48.73;30.63;;;8.80;99.90;;;;;;4957486;28;20330;-61
2022/04/15 06:13:50;;;;;;;48.23;30.93;;;8.70;99.90;;;;;;4957425;28;20611;-62
2022/04/15 06:16:19;;;;;;;45.90;29.97;;;8.60;99.90;;;;;;4956484;28;20220;-61
2022/04/15 06:18:46;;;;;;;45.53;29.20;;;8.60;99.90;;;;;;4957060;28;20537;-61
2022/04/15 06:21:13;;;;;;;37.13;26.37;;;8.60;99.90;;;;;;4956719;28;20210;-61
2022/04/15 06:23:40;;;;;;;37.17;26.93;;;8.60;99.90;;;;;;4957313;28;20307;-61
2022/04/15 06:26:07;;;;;;;48.97;28.33;;;8.70;99.90;;;;;;4957112;28;20206;-62
2022/04/15 06:28:34;;;;;;;44.90;27.57;;;8.70;99.90;;;;;;4956727;28;20664;-61
2022/04/15 06:31:02;;;;;;;42.73;26.50;;;8.70;99.90;;;;;;4956983;28;20575;-62
2022/04/15 06:33:29;;;;;;;36.90;25.97;;;8.70;99.90;;;;;;4956912;28;20557;-61
2022/04/15 06:35:56;;;;;;;26.80;23.73;;;8.60;99.90;;;;;;4956976;28;20206;-61
2022/04/15 06:38:23;;;;;;;36.57;25.40;;;8.60;99.90;;;;;;4956509;28;20254;-61
2022/04/15 06:40:50;;;;;;;53.30;27.43;;;8.70;99.90;;;;;;4956563;28;20206;-61
2022/04/15 06:43:17;;;;;;;30.87;23.33;;;8.60;99.90;;;;;;4956418;28;20257;-61
2022/04/15 06:45:44;;;;;;;45.63;24.77;;;8.60;99.90;;;;;;4956643;28;20276;-61
2022/04/15 06:48:12;;;;;;;42.97;23.80;;;8.60;99.90;;;;;;4956908;28;20214;-61
2022/04/15 06:50:39;;;;;;;36.07;24.17;;;8.50;99.90;;;;;;4956533;28;20217;-62
2022/04/15 06:53:07;;;;;;;37.10;23.03;;;8.50;99.90;;;;;;4956703;28;20203;-62
2022/04/15 06:55:34;;;;;;;41.80;23.97;;;8.50;99.90;;;;;;4957565;28;20202;-62
2022/04/15 06:58:01;;;;;;;41.47;25.17;;;8.50;99.90;;;;;;4956520;28;20209;-62
2022/04/15 07:00:28;;;;;;;29.10;22.90;;;8.50;99.90;;;;;;4956368;28;20217;-60
2022/04/15 07:02:55;;;;;;;32.80;22.53;;;8.60;99.90;;;;;;4956289;28;20195;-60
2022/04/15 07:05:25;;;;;;;25.07;21.80;;;8.60;99.90;;;;;;4956440;28;20233;-60
2022/04/15 07:07:52;;;;;;;34.83;22.23;;;8.70;99.90;;;;;;4956195;28;20208;-59
2022/04/15 07:10:19;;;;;;;36.37;22.97;;;8.80;99.90;;;;;;4956043;28;20199;-61
2022/04/15 07:12:46;;;;;;;26.40;21.37;;;8.70;99.90;;;;;;4956203;28;20231;-60
2022/04/15 07:15:13;;;;;;;29.50;21.33;;;8.70;99.90;;;;;;4956041;28;20211;-60
2022/04/15 07:17:40;;;;;;;23.27;20.17;;;8.80;99.90;;;;;;4956138;28;20206;-61
2022/04/15 07:20:08;;;;;;;23.47;19.77;;;8.80;99.90;;;;;;4956048;28;20661;-60
2022/04/15 07:22:36;;;;;;;25.20;20.47;;;8.70;99.90;;;;;;4955888;28;20213;-61
2022/04/15 07:25:03;;;;;;;26.83;20.80;;;8.80;99.90;;;;;;4956020;28;20207;-60
2022/04/15 07:27:30;;;;;;;26.37;21.17;;;8.70;99.90;;;;;;4955744;28;20210;-60
2022/04/15 07:29:57;;;;;;;24.30;19.67;;;8.80;99.90;;;;;;4955932;28;20225;-60
2022/04/15 07:32:27;;;;;;;24.93;18.93;;;8.80;99.90;;;;;;4955803;28;20215;-60
2022/04/15 07:34:54;;;;;;;18.23;16.33;;;8.90;99.90;;;;;;4956051;28;20301;-60
2022/04/15 07:37:22;;;;;;;17.93;16.03;;;8.80;99.90;;;;;;4955454;28;20200;-59
2022/04/15 07:39:50;;;;;;;16.47;14.77;;;9.00;99.90;;;;;;4955808;28;20580;-60
2022/04/15 07:42:17;;;;;;;16.10;14.40;;;9.20;99.90;;;;;;4955710;28;20193;-60
2022/04/15 07:44:45;;;;;;;14.33;12.97;;;9.30;99.90;;;;;;4955621;28;20210;-60
2022/04/15 07:47:12;;;;;;;12.87;11.67;;;9.60;99.90;;;;;;4955437;28;20240;-60
2022/04/15 07:49:39;;;;;;;15.23;12.10;;;9.70;99.90;;;;;;4955526;28;20208;-60
2022/04/15 07:52:08;;;;;;;13.67;12.30;;;9.90;99.90;;;;;;4955445;28;20220;-61
2022/04/15 07:54:36;;;;;;;12.43;11.23;;;10.00;99.90;;;;;;4956958;28;20211;-61
2022/04/15 07:57:04;;;;;;;13.20;10.40;;;10.20;99.90;;;;;;4955482;28;20725;-60
2022/04/15 07:59:32;;;;;;;10.50;9.53;;;10.80;99.90;;;;;;4955264;28;20265;-60
2022/04/15 08:01:59;;;;;;;11.20;10.13;;;11.40;99.90;;;;;;4955066;28;20206;-60
2022/04/15 08:04:27;;;;;;;13.20;12.07;;;11.20;99.90;;;;;;4955357;28;20205;-60
2022/04/15 08:06:54;;;;;;;13.07;11.77;;;10.70;99.90;;;;;;4955615;28;20277;-60
2022/04/15 08:09:22;;;;;;;12.57;11.37;;;10.70;99.90;;;;;;4955499;28;20210;-63
2022/04/15 08:11:49;;;;;;;12.00;10.80;;;10.90;99.90;;;;;;4955146;28;20229;-60
2022/04/15 08:14:17;;;;;;;11.87;10.50;;;11.30;99.90;;;;;;4955095;28;20215;-61
2022/04/15 08:16:44;;;;;;;12.30;10.83;;;11.50;99.90;;;;;;4954989;28;20553;-60
2022/04/15 08:19:11;;;;;;;10.10;9.00;;;11.50;99.90;;;;;;4971793;28;20636;-61
2022/04/15 08:21:38;;;;;;;10.23;8.67;;;12.10;99.90;;;;;;4973708;28;20217;-61
2022/04/15 08:24:06;;;;;;;10.60;9.70;;;13.00;99.90;;;;;;4973932;28;20198;-61
2022/04/15 08:26:33;;;;;;;10.50;9.47;;;13.20;99.90;;;;;;4974377;28;20198;-61
2022/04/15 08:29:00;;;;;;;9.43;8.43;;;13.00;99.90;;;;;;4973533;28;20569;-61
2022/04/15 08:31:28;;;;;;;10.40;8.90;;;13.10;99.90;;;;;;4973943;28;20207;-61
2022/04/15 08:33:55;;;;;;;8.87;8.07;;;13.20;99.90;;;;;;4974161;28;20209;-62
2022/04/15 08:36:22;;;;;;;10.13;9.13;;;13.00;99.90;;;;;;4973840;28;20285;-62
2022/04/15 08:38:49;;;;;;;9.13;8.33;;;13.20;99.90;;;;;;4973698;28;20233;-60
2022/04/15 08:41:20;;;;;;;8.73;7.90;;;13.20;99.90;;;;;;4973982;28;20685;-61
2022/04/15 08:43:47;;;;;;;11.13;8.20;;;13.10;99.90;;;;;;4973805;28;20214;-61
2022/04/15 08:46:14;;;;;;;8.90;8.10;;;12.80;99.90;;;;;;4973773;28;20675;-60
2022/04/15 08:48:43;;;;;;;9.83;8.93;;;12.90;99.90;;;;;;4973815;28;20302;-61
2022/04/15 08:51:12;;;;;;;9.13;8.33;;;12.90;99.90;;;;;;4974292;28;20202;-61
2022/04/15 08:53:39;;;;;;;9.87;8.97;;;12.70;99.90;;;;;;4974893;28;20229;-60
2022/04/15 08:56:06;;;;;;;9.67;8.70;;;12.50;99.90;;;;;;4974100;28;20216;-60
2022/04/15 08:58:35;;;;;;;8.57;7.70;;;12.70;99.90;;;;;;4972985;28;20212;-60
2022/04/15 09:01:02;;;;;;;9.00;8.07;;;13.30;99.90;;;;;;4973878;28;20202;-60
2022/04/15 09:03:29;;;;;;;9.37;8.37;;;13.70;99.90;;;;;;4973870;28;20212;-60
2022/04/15 09:05:57;;;;;;;6.67;6.07;;;14.30;99.90;;;;;;4973838;28;20208;-60
2022/04/15 09:08:25;;;;;;;6.77;6.17;;;14.80;99.90;;;;;;4973958;28;20212;-60
2022/04/15 09:10:57;;;;;;;6.90;6.30;;;15.00;99.90;;;;;;4973874;28;20210;-60
2022/04/15 09:13:28;;;;;;;6.43;5.93;;;15.10;99.90;;;;;;4973434;28;20260;-60
2022/04/15 09:15:56;;;;;;;7.03;6.43;;;14.90;99.90;;;;;;4973315;28;20195;-60
2022/04/15 09:18:31;;;;;;;6.40;5.90;;;15.20;99.90;;;;;;4973680;28;20206;-60
2022/04/15 09:21:20;;;;;;;6.93;6.33;;;15.20;99.90;;;;;;4973819;28;20307;-60
2022/04/15 09:23:49;;;;;;;6.40;5.90;;;14.60;99.90;;;;;;4974143;28;20530;-60
2022/04/15 09:26:16;;;;;;;6.70;6.20;;;14.40;99.90;;;;;;4973626;28;20219;-60
2022/04/15 09:28:43;;;;;;;7.27;6.57;;;14.30;99.90;;;;;;4973500;28;20230;-60
2022/04/15 09:31:13;;;;;;;11.57;7.07;;;14.00;99.90;;;;;;4973983;28;20205;-60
2022/04/15 09:33:53;;;;;;;6.50;5.90;;;14.20;99.90;;;;;;4977354;28;20620;-60
2022/04/15 09:36:24;;;;;;;6.57;6.07;;;14.20;99.90;;;;;;4977060;28;20183;-60
2022/04/15 09:39:00;;;;;;;6.63;6.03;;;14.10;99.90;;;;;;4976603;28;20237;-60
2022/04/15 09:41:29;;;;;;;7.20;6.20;;;14.20;99.90;;;;;;4976907;28;20706;-61
2022/04/15 09:43:58;;;;;;;7.07;6.40;;;14.10;99.90;;;;;;4977194;28;20285;-60
2022/04/15 09:46:26;;;;;;;6.30;5.63;;;14.60;99.90;;;;;;4977100;28;20270;-61
2022/04/15 09:49:02;;;;;;;6.63;6.03;;;15.20;99.90;;;;;;4977115;28;20303;-61
2022/04/15 09:51:33;;;;;;;6.30;5.73;;;14.70;99.90;;;;;;4977149;28;20192;-60
2022/04/15 09:54:03;;;;;;;6.37;5.77;;;15.00;99.90;;;;;;4977002;28;20212;-61
2022/04/15 09:56:33;;;;;;;6.17;5.67;;;15.50;99.90;;;;;;4976836;28;20218;-62
2022/04/15 09:59:05;;;;;;;5.97;5.47;;;16.10;99.90;;;;;;4976843;28;20182;-61
2022/04/15 10:01:34;;;;;;;7.10;6.40;;;16.00;99.90;;;;;;4976895;28;20242;-60
2022/04/15 10:04:01;;;;;;;6.40;5.90;;;15.40;99.90;;;;;;4976472;28;20558;-60
2022/04/15 10:06:29;;;;;;;7.00;6.27;;;15.30;99.90;;;;;;4976449;28;20304;-60
2022/04/15 10:09:02;;;;;;;6.83;6.20;;;15.40;99.90;;;;;;4976751;28;20218;-60
2022/04/15 10:11:32;;;;;;;6.77;5.90;;;15.20;99.90;;;;;;4977048;28;20188;-60
2022/04/15 10:13:59;;;;;;;6.10;5.50;;;15.60;99.90;;;;;;4976664;28;20232;-61
2022/04/15 10:16:27;;;;;;;6.40;5.70;;;15.60;99.90;;;;;;4976839;28;20663;-61
2022/04/15 10:18:54;;;;;;;6.90;6.20;;;15.10;99.90;;;;;;4979904;28;20209;-64
2022/04/15 10:21:21;;;;;;;7.37;6.10;;;14.70;99.90;;;;;;4977261;28;20209;-60
2022/04/15 10:23:48;;;;;;;6.70;5.97;;;14.50;99.90;;;;;;4976536;28;20203;-60
2022/04/15 10:26:20;;;;;;;6.27;5.77;;;14.50;99.90;;;;;;4976658;28;20611;-61
2022/04/15 10:28:48;;;;;;;6.37;5.87;;;14.60;99.90;;;;;;4976405;28;20199;-60
2022/04/15 10:31:17;;;;;;;6.93;6.10;;;14.90;99.90;;;;;;4976375;28;20202;-61
2022/04/15 10:33:49;;;;;;;9.00;5.60;;;15.50;99.90;;;;;;4975979;28;20223;-60
2022/04/15 10:36:18;;;;;;;6.23;5.67;;;16.30;99.90;;;;;;4976420;28;20200;-60
2022/04/15 10:39:14;;;;;;;6.60;5.90;;;16.40;99.90;;;;;;4975834;28;20627;-61
2022/04/15 10:42:01;;;;;;;7.17;6.53;;;16.40;99.90;;;;;;4976191;28;20244;-61
2022/04/15 10:44:38;;;;;;;7.00;6.27;;;15.70;99.90;;;;;;4974843;28;20654;-60
2022/04/15 10:47:11;;;;;;;6.17;5.40;;;15.60;99.90;;;;;;4976068;28;20255;-61
2022/04/15 10:49:40;;;;;;;7.90;5.90;;;15.50;99.90;;;;;;4976061;28;20181;-61
2022/04/15 10:52:18;;;;;;;8.73;6.00;;;15.60;99.90;;;;;;4975814;28;20214;-62
2022/04/15 10:54:46;;;;;;;6.10;5.60;;;15.90;99.90;;;;;;4975522;28;20197;-61
2022/04/15 10:57:17;;;;;;;5.47;5.07;;;15.90;99.90;;;;;;4975766;28;20565;-60
2022/04/15 11:02:40;;;;;;;6.33;5.80;;;16.10;99.90;;;;;;4975362;28;20174;-61
2022/04/15 11:05:11;;;;;;;5.77;4.80;;;16.40;99.90;;;;;;4975627;28;20595;-62
2022/04/15 11:07:48;;;;;;;6.07;5.57;;;15.90;99.90;;;;;;4975706;28;20210;-61
2022/04/15 11:10:46;;;;;;;5.87;5.37;;;15.90;99.90;;;;;;4975576;28;20197;-61
2022/04/15 11:13:34;;;;;;;6.57;5.93;;;16.10;99.90;;;;;;4975191;28;20284;-62
2022/04/15 11:16:02;;;;;;;7.60;5.33;;;17.00;99.90;;;;;;4975421;28;20186;-61
2022/04/15 11:18:50;;;;;;;7.13;6.10;;;17.80;99.90;;;;;;4975385;28;20289;-61
2022/04/15 11:21:18;;;;;;;7.37;5.27;;;17.20;92.40;;;;;;4974851;28;20206;-61
2022/04/15 11:23:50;;;;;;;5.27;4.87;;;16.90;82.30;;;;;;4974931;28;20198;-60
2022/04/15 11:26:18;;;;;;;5.47;4.97;;;17.00;76.70;;;;;;4975130;28;20212;-61
2022/04/15 11:28:47;;;;;;;5.73;5.13;;;18.20;83.20;;;;;;4975039;28;20207;-61
2022/04/15 11:31:22;;;;;;;5.33;4.80;;;18.80;53.00;;;;;;4974923;28;20206;-61
2022/04/15 11:33:49;;;;;;;6.27;5.37;;;18.00;30.20;;;;;;4974700;28;20259;-61
2022/04/15 11:36:18;;;;;;;5.55;5.15;;;17.40;27.10;;;;;;4973921;28;20698;-60
2022/04/15 11:38:46;;;;;;;5.53;5.13;;;17.20;35.50;;;;;;4974044;28;20731;-62
2022/04/15 11:41:17;;;;;;;7.43;6.03;;;17.10;20.00;;;;;;4974519;28;20561;-61
2022/04/15 11:44:00;;;;;;;5.90;5.40;;;16.80;23.60;;;;;;4974913;28;20183;-62
2022/04/15 11:46:45;;;;;;;5.90;5.30;;;16.70;21.40;;;;;;4974440;28;20262;-62
2022/04/15 11:49:17;;;;;;;6.00;5.40;;;17.60;19.10;;;;;;4974582;28;20213;-62
2022/04/15 11:51:45;;;;;;;9.17;5.70;;;18.00;1.90;;;;;;4974728;28;20182;-61
2022/04/15 11:54:12;;;;;;;5.40;4.87;;;18.60;1.00;;;;;;4973336;28;20226;-61
2022/04/15 11:56:40;;;;;;;6.00;5.15;;;18.70;1.00;;;;;;4973670;28;20194;-63
2022/04/15 11:59:09;;;;;;;6.47;5.00;;;18.80;1.00;;;;;;4973606;28;20293;-63
2022/04/15 12:01:37;;;;;;;11.15;6.15;;;18.60;1.00;;;;;;4974399;28;20213;-63
2022/04/15 12:04:04;;;;;;;5.55;5.03;;;18.70;1.00;;;;;;4973667;28;20652;-62
2022/04/15 12:06:31;;;;;;;5.60;5.05;;;19.30;1.00;;;;;;4972726;28;20206;-62
2022/04/15 12:08:58;;;;;;;5.25;4.85;;;18.50;1.00;;;;;;4974252;28;20214;-62
2022/04/15 12:11:26;;;;;;;5.40;5.00;;;17.80;1.00;;;;;;4973845;28;20660;-62
2022/04/15 12:13:58;;;;;;;5.25;4.85;;;18.40;1.00;;;;;;4974036;28;20249;-61
2022/04/15 12:16:29;;;;;;;5.53;5.05;;;18.80;1.00;;;;;;4973895;28;20213;-61
2022/04/15 12:18:57;;;;;;;20.30;6.50;;;19.60;1.00;;;;;;4974281;28;20273;-61
2022/04/15 12:21:25;;;;;;;5.90;5.40;;;19.50;1.00;;;;;;4973925;28;20202;-62
2022/04/15 12:24:03;;;;;;;6.78;5.55;;;19.60;1.00;;;;;;4973958;28;20202;-61
2022/04/15 12:26:44;;;;;;;6.03;5.53;;;18.40;1.00;;;;;;4973871;28;20203;-62
2022/04/15 12:32:21;;;;;;;5.83;5.37;;;18.10;1.00;;;;;;4973827;28;20206;-62
2022/04/15 12:34:49;;;;;;;5.60;5.10;;;18.60;1.00;;;;;;4973493;28;20777;-61
2022/04/15 12:37:36;;;;;;;6.20;5.70;;;18.70;1.00;;;;;;4973641;28;20202;-62
2022/04/15 12:40:05;;;;;;;5.87;5.10;;;18.20;1.00;;;;;;4973823;28;20277;-62
2022/04/15 12:42:34;;;;;;;5.40;4.90;;;18.10;1.00;;;;;;4973629;28;20656;-62
2022/04/15 12:45:03;;;;;;;5.83;5.33;;;18.00;1.00;;;;;;4973202;28;20731;-62
2022/04/15 12:47:31;;;;;;;5.33;4.93;;;18.10;1.00;;;;;;4973308;28;20668;-62
2022/04/15 12:50:22;;;;;;;4.97;4.43;;;17.80;1.00;;;;;;4973332;28;20206;-62
2022/04/15 12:52:49;;;;;;;4.83;4.40;;;17.60;1.00;;;;;;4973225;28;20222;-62
2022/04/15 12:55:26;;;;;;;6.20;5.60;;;17.50;1.00;;;;;;4973493;28;20547;-60